createdAt,value
2023-10-02T00:02:38.340Z,12.37
2023-10-02T00:05:06.691Z,12.24
2023-10-02T00:07:37.474Z,12.24
2023-10-02T00:10:05.871Z,12.27
2023-10-02T00:12:36.002Z,12.19
2023-10-02T00:15:15.055Z,12.25
2023-10-02T00:17:45.548Z,12.26
2023-10-02T00:20:22.233Z,12.21
2023-10-02T00:22:51.352Z,12.12
2023-10-02T00:25:21.158Z,12.02
2023-10-02T00:27:53.172Z,12.03
2023-10-02T00:30:22.861Z,12.13
2023-10-02T00:32:51.773Z,12.06
2023-10-02T00:35:18.771Z,12.18
2023-10-02T00:37:46.566Z,12.21
2023-10-02T00:40:30.063Z,12.24
2023-10-02T00:43:22.540Z,12.23
2023-10-02T00:45:50.579Z,12.18
2023-10-02T00:48:27.592Z,12.10
2023-10-02T00:50:58.031Z,12.22
2023-10-02T00:53:40.380Z,12.19
2023-10-02T00:56:22.123Z,11.99
2023-10-02T00:58:59.961Z,11.87
2023-10-02T01:01:27.816Z,11.88
2023-10-02T01:04:12.309Z,11.87
2023-10-02T01:07:06.467Z,11.82
2023-10-02T01:09:35.312Z,11.75
2023-10-02T01:12:01.967Z,11.83
2023-10-02T01:14:51.995Z,11.89
2023-10-02T01:17:22.414Z,11.91
2023-10-02T01:19:56.965Z,11.96
2023-10-02T01:22:29.531Z,11.93
2023-10-02T01:25:19.483Z,11.87
2023-10-02T01:27:52.393Z,11.84
2023-10-02T01:30:22.195Z,11.79
2023-10-02T01:33:18.758Z,11.64
2023-10-02T01:35:50.535Z,11.56
2023-10-02T01:38:23.169Z,11.48
2023-10-02T01:40:55.180Z,11.41
2023-10-02T01:43:23.870Z,11.39
2023-10-02T01:45:50.370Z,11.31
2023-10-02T01:48:37.948Z,11.30
2023-10-02T01:51:24.836Z,11.28
2023-10-02T01:54:20.273Z,11.24
2023-10-02T01:56:46.874Z,11.25
2023-10-02T01:59:21.017Z,11.29
2023-10-02T02:02:13.908Z,11.23
2023-10-02T02:04:41.017Z,11.24
2023-10-02T02:07:09.876Z,11.29
2023-10-02T02:09:38.466Z,11.12
2023-10-02T02:12:08.086Z,11.30
2023-10-02T02:14:51.094Z,11.30
2023-10-02T02:17:26.965Z,11.41
2023-10-02T02:19:55.977Z,11.37
2023-10-02T02:22:26.776Z,11.39
2023-10-02T02:24:59.527Z,11.41
2023-10-02T02:27:26.890Z,11.33
2023-10-02T02:29:56.001Z,11.30
2023-10-02T02:32:37.972Z,11.28
2023-10-02T02:35:10.319Z,11.23
2023-10-02T02:37:37.083Z,11.21
2023-10-02T02:40:23.157Z,11.13
2023-10-02T02:42:54.197Z,11.15
2023-10-02T02:45:32.329Z,11.06
2023-10-02T02:48:08.773Z,11.11
2023-10-02T02:50:37.433Z,11.15
2023-10-02T02:53:23.484Z,11.12
2023-10-02T02:56:11.555Z,11.16
2023-10-02T02:58:39.350Z,11.16
2023-10-02T03:01:13.140Z,11.10
2023-10-02T03:03:42.901Z,11.20
2023-10-02T03:06:32.864Z,11.13
2023-10-02T03:08:59.587Z,11.13
2023-10-02T03:11:30.393Z,11.07
2023-10-02T03:14:15.408Z,11.01
2023-10-02T03:16:46.744Z,11.00
2023-10-02T03:19:15.103Z,10.96
2023-10-02T03:21:43.703Z,11.05
2023-10-02T03:24:13.904Z,11.06
2023-10-02T03:26:40.586Z,11.05
2023-10-02T03:29:13.220Z,11.05
2023-10-02T03:31:50.875Z,11.02
2023-10-02T03:34:33.323Z,11.03
2023-10-02T03:37:15.838Z,11.01
2023-10-02T03:40:02.874Z,11.05
2023-10-02T03:42:34.198Z,11.08
2023-10-02T03:45:05.397Z,11.02
2023-10-02T03:47:35.072Z,11.13
2023-10-02T03:50:03.374Z,11.18
2023-10-02T03:52:34.884Z,11.26
2023-10-02T03:55:15.907Z,11.22
2023-10-02T03:57:50.256Z,11.45
2023-10-02T04:00:44.468Z,11.47
2023-10-02T04:03:15.792Z,11.55
2023-10-02T04:05:45.507Z,11.64
2023-10-02T04:08:32.212Z,11.73
2023-10-02T04:11:02.546Z,11.77
2023-10-02T04:13:35.993Z,11.88
2023-10-02T04:16:24.908Z,12.00
2023-10-02T04:19:00.042Z,11.98
2023-10-02T04:21:28.438Z,12.04
2023-10-02T04:23:55.891Z,12.12
2023-10-02T04:26:23.928Z,12.22
2023-10-02T04:28:59.985Z,12.28
2023-10-02T04:31:29.220Z,12.32
2023-10-02T04:34:15.360Z,12.30
2023-10-02T04:36:42.881Z,12.35
2023-10-02T04:39:31.360Z,12.38
2023-10-02T04:42:15.827Z,12.34
2023-10-02T04:44:47.951Z,12.26
2023-10-02T04:47:21.825Z,12.28
2023-10-02T04:50:20.845Z,12.40
2023-10-02T04:53:21.278Z,12.36
2023-10-02T04:55:50.189Z,12.51
2023-10-02T04:58:21.443Z,12.60
2023-10-02T05:01:06.296Z,12.61
2023-10-02T05:03:38.536Z,12.68
2023-10-02T05:06:06.058Z,12.60
2023-10-02T05:09:03.429Z,12.63
2023-10-02T05:11:47.312Z,12.65
2023-10-02T05:14:16.808Z,12.77
2023-10-02T05:16:47.526Z,12.82
2023-10-02T05:19:16.975Z,12.85
2023-10-02T05:22:05.396Z,12.79
2023-10-02T05:24:33.227Z,12.77
2023-10-02T05:27:00.805Z,12.70
2023-10-02T05:29:42.562Z,12.66
2023-10-02T05:32:24.375Z,12.82
2023-10-02T05:35:06.117Z,12.79
2023-10-02T05:37:35.230Z,12.94
2023-10-02T05:40:21.670Z,12.99
2023-10-02T05:43:02.209Z,13.01
2023-10-02T05:45:46.473Z,13.09
2023-10-02T05:48:28.922Z,13.03
2023-10-02T05:50:58.172Z,13.03
2023-10-02T05:53:27.540Z,13.11
2023-10-02T05:56:07.743Z,13.19
2023-10-02T05:58:42.620Z,13.28
2023-10-02T06:01:25.189Z,13.28
2023-10-02T06:03:58.817Z,13.33
2023-10-02T06:06:29.013Z,13.51
2023-10-02T06:09:02.262Z,13.56
2023-10-02T06:11:36.702Z,13.63
2023-10-02T06:14:10.912Z,13.68
2023-10-02T06:16:42.396Z,13.78
2023-10-02T06:19:15.759Z,13.78
2023-10-02T06:21:47.705Z,13.79
2023-10-02T06:24:19.490Z,13.99
2023-10-02T06:26:59.804Z,14.16
2023-10-02T06:29:30.587Z,14.19
2023-10-02T06:32:04.246Z,14.25
2023-10-02T06:34:38.710Z,14.33
2023-10-02T06:37:13.360Z,14.43
2023-10-02T06:39:48.270Z,14.76
2023-10-02T06:42:20.593Z,14.88
2023-10-02T06:44:56.331Z,15.15
2023-10-02T06:47:30.295Z,15.39
2023-10-02T06:50:04.863Z,15.62
2023-10-02T06:52:33.432Z,15.92
2023-10-02T06:55:02.488Z,16.08
2023-10-02T06:57:29.821Z,16.22
2023-10-02T06:59:56.567Z,16.26
2023-10-02T07:02:28.483Z,16.13
2023-10-02T07:04:57.139Z,16.50
2023-10-02T07:07:28.118Z,16.58
2023-10-02T07:09:56.711Z,16.73
2023-10-02T07:12:29.122Z,16.80
2023-10-02T07:15:11.980Z,16.94
2023-10-02T07:17:49.812Z,17.17
2023-10-02T07:20:19.381Z,17.09
2023-10-02T07:22:46.741Z,17.25
2023-10-02T07:25:13.412Z,17.34
2023-10-02T07:27:42.507Z,17.52
2023-10-02T07:30:10.625Z,17.36
2023-10-02T07:32:37.292Z,17.30
2023-10-02T07:35:23.177Z,17.01
2023-10-02T07:37:59.451Z,17.09
2023-10-02T07:40:49.895Z,17.46
2023-10-02T07:43:20.148Z,17.70
2023-10-02T07:46:03.343Z,17.70
2023-10-02T07:48:37.181Z,17.96
2023-10-02T07:51:07.844Z,18.01
2023-10-02T07:53:40.587Z,18.11
2023-10-02T07:56:13.050Z,18.15
2023-10-02T07:58:40.464Z,18.34
2023-10-02T08:01:12.614Z,18.55
2023-10-02T08:03:46.117Z,18.71
2023-10-02T08:06:23.266Z,18.91
2023-10-02T08:09:14.092Z,18.92
2023-10-02T08:11:52.151Z,19.12
2023-10-02T08:14:38.996Z,19.30
2023-10-02T08:17:19.448Z,19.19
2023-10-02T08:19:57.734Z,19.08
2023-10-02T08:22:36.951Z,19.20
2023-10-02T08:25:14.917Z,19.26
2023-10-02T08:27:47.460Z,19.62
2023-10-02T08:30:29.938Z,19.69
2023-10-02T08:33:11.812Z,19.51
2023-10-02T08:35:56.358Z,19.33
2023-10-02T08:38:23.347Z,19.71
2023-10-02T08:40:58.549Z,19.96
2023-10-02T08:43:29.675Z,20.03
2023-10-02T08:45:57.027Z,19.95
2023-10-02T08:48:26.477Z,20.03
2023-10-02T08:50:59.714Z,20.34
2023-10-02T08:53:27.550Z,20.40
2023-10-02T08:56:22.891Z,20.37
2023-10-02T08:59:10.067Z,20.50
2023-10-02T09:01:36.802Z,20.71
2023-10-02T09:04:24.379Z,20.94
2023-10-02T09:06:54.461Z,20.86
2023-10-02T09:09:26.789Z,20.87
2023-10-02T09:11:58.050Z,20.66
2023-10-02T09:14:32.054Z,20.77
2023-10-02T09:17:24.117Z,21.01
2023-10-02T09:19:59.676Z,21.09
2023-10-02T09:22:28.844Z,21.26
2023-10-02T09:25:28.331Z,21.20
2023-10-02T09:28:00.861Z,21.04
2023-10-02T09:30:42.115Z,21.43
2023-10-02T09:33:39.483Z,21.53
2023-10-02T09:37:06.944Z,21.68
2023-10-02T09:39:19.787Z,21.73
2023-10-02T09:41:47.783Z,21.67
2023-10-02T09:44:22.581Z,21.95
2023-10-02T09:46:53.269Z,22.34
2023-10-02T09:49:31.733Z,22.09
2023-10-02T09:52:17.065Z,22.04
2023-10-02T09:54:49.808Z,21.89
2023-10-02T09:57:21.900Z,21.69
2023-10-02T09:59:48.641Z,21.99
2023-10-02T10:02:22.430Z,22.25
2023-10-02T10:05:04.215Z,22.30
2023-10-02T10:08:04.459Z,22.27
2023-10-02T10:10:51.102Z,22.67
2023-10-02T10:13:34.016Z,22.55
2023-10-02T10:16:19.779Z,22.48
2023-10-02T10:19:07.912Z,22.69
2023-10-02T10:21:57.776Z,22.63
2023-10-02T10:24:57.680Z,22.70
2023-10-02T10:27:39.924Z,22.88
2023-10-02T10:30:36.724Z,22.77
2023-10-02T10:33:17.173Z,22.81
2023-10-02T10:35:52.490Z,22.98
2023-10-02T10:38:30.290Z,22.71
2023-10-02T10:41:06.895Z,22.76
2023-10-02T10:43:55.955Z,22.85
2023-10-02T10:46:33.777Z,23.00
2023-10-02T10:49:28.713Z,23.08
2023-10-02T10:51:57.988Z,23.13
2023-10-02T10:54:53.429Z,22.93
2023-10-02T10:57:23.450Z,23.34
2023-10-02T11:00:30.050Z,23.29
2023-10-02T11:03:10.107Z,23.14
2023-10-02T11:05:38.522Z,23.20
2023-10-02T11:08:27.671Z,23.43
2023-10-02T11:11:05.471Z,23.56
2023-10-02T11:13:59.632Z,23.28
2023-10-02T11:16:32.415Z,23.34
2023-10-02T11:19:15.161Z,23.65
2023-10-02T11:22:15.839Z,23.65
2023-10-02T11:24:46.081Z,23.60
2023-10-02T11:27:16.255Z,23.75
2023-10-02T11:29:44.457Z,23.71
2023-10-02T11:32:22.813Z,24.03
2023-10-02T11:35:00.657Z,23.93
2023-10-02T11:37:27.935Z,23.89
2023-10-02T11:39:56.914Z,24.20
2023-10-02T11:42:24.425Z,24.56
2023-10-02T11:44:51.251Z,24.32
2023-10-02T11:47:17.930Z,24.50
2023-10-02T11:49:46.144Z,24.49
2023-10-02T11:52:12.744Z,24.40
2023-10-02T11:54:40.972Z,24.48
2023-10-02T11:57:11.434Z,24.64
2023-10-02T11:59:42.702Z,24.59
2023-10-02T12:02:13.506Z,24.63
2023-10-02T12:04:40.382Z,24.52
2023-10-02T12:07:08.062Z,24.56
2023-10-02T12:09:35.233Z,24.29
2023-10-02T12:12:02.163Z,24.32
2023-10-02T12:14:29.978Z,24.67
2023-10-02T12:16:58.866Z,24.75
2023-10-02T12:19:37.159Z,24.54
2023-10-02T12:22:09.551Z,24.53
2023-10-02T12:24:37.860Z,24.49
2023-10-02T12:27:05.753Z,24.64
2023-10-02T12:29:32.399Z,24.51
2023-10-02T12:32:02.324Z,24.52
2023-10-02T12:34:29.453Z,24.33
2023-10-02T12:36:56.599Z,24.52
2023-10-02T12:39:27.646Z,24.40
2023-10-02T12:41:54.822Z,24.23
2023-10-02T12:44:22.840Z,23.99
2023-10-02T12:46:52.374Z,24.47
2023-10-02T12:49:22.568Z,24.42
2023-10-02T12:51:51.704Z,24.40
2023-10-02T12:54:18.345Z,24.16
2023-10-02T12:56:46.983Z,24.34
2023-10-02T12:59:13.770Z,24.35
2023-10-02T13:01:40.492Z,24.39
2023-10-02T13:04:08.016Z,24.39
2023-10-02T13:06:35.317Z,24.06
2023-10-02T13:09:10.037Z,23.94
2023-10-02T13:11:46.146Z,24.15
2023-10-02T13:14:20.300Z,24.10
2023-10-02T13:16:48.206Z,24.26
2023-10-02T13:19:15.346Z,24.36
2023-10-02T13:21:42.815Z,24.27
2023-10-02T13:24:17.272Z,24.20
2023-10-02T13:26:45.229Z,24.26
2023-10-02T13:29:12.278Z,24.32
2023-10-02T13:31:38.798Z,24.02
2023-10-02T13:34:08.482Z,24.01
2023-10-02T13:36:35.563Z,24.22
2023-10-02T13:39:05.281Z,24.00
2023-10-02T13:41:32.093Z,24.18
2023-10-02T13:44:01.000Z,24.31
2023-10-02T13:46:28.081Z,24.18
2023-10-02T13:48:54.834Z,24.28
2023-10-02T13:51:22.839Z,24.44
2023-10-02T13:53:50.872Z,24.40
2023-10-02T13:56:18.897Z,24.23
2023-10-02T13:58:51.523Z,24.26
2023-10-02T14:01:26.053Z,24.51
2023-10-02T14:03:55.208Z,24.58
2023-10-02T14:06:24.767Z,24.56
2023-10-02T14:08:52.263Z,24.66
2023-10-02T14:11:24.346Z,24.67
2023-10-02T14:13:52.605Z,24.56
2023-10-02T14:16:22.777Z,24.58
2023-10-02T14:18:54.615Z,24.73
2023-10-02T14:21:25.914Z,24.69
2023-10-02T14:23:54.736Z,24.61
2023-10-02T14:26:23.714Z,24.55
2023-10-02T14:28:52.535Z,24.64
2023-10-02T14:31:33.531Z,24.38
2023-10-02T14:34:01.435Z,24.17
2023-10-02T14:36:30.359Z,24.54
2023-10-02T14:38:58.756Z,24.55
2023-10-02T14:41:29.566Z,24.67
2023-10-02T14:43:58.332Z,24.70
2023-10-02T14:46:25.371Z,24.49
2023-10-02T14:48:52.173Z,24.62
2023-10-02T14:51:19.817Z,24.90
2023-10-02T14:53:46.953Z,24.75
2023-10-02T14:56:14.089Z,24.52
2023-10-02T14:58:48.994Z,24.40
2023-10-02T15:01:18.735Z,24.48
2023-10-02T15:03:46.540Z,24.61
2023-10-02T15:06:15.151Z,24.41
2023-10-02T15:08:42.499Z,23.59
2023-10-02T15:11:14.628Z,23.53
2023-10-02T15:13:42.547Z,23.08
2023-10-02T15:16:16.908Z,22.90
2023-10-02T15:18:43.900Z,22.47
2023-10-02T15:21:11.580Z,22.49
2023-10-02T15:23:38.768Z,22.32
2023-10-02T15:26:05.499Z,21.99
2023-10-02T15:28:32.506Z,21.88
2023-10-02T15:30:59.721Z,21.84
2023-10-02T15:33:26.610Z,21.51
2023-10-02T15:35:54.411Z,21.51
2023-10-02T15:38:21.130Z,21.29
2023-10-02T15:40:48.200Z,21.28
2023-10-02T15:43:15.999Z,21.13
2023-10-02T15:45:44.434Z,21.21
2023-10-02T15:48:11.060Z,20.97
2023-10-02T15:50:37.638Z,20.91
2023-10-02T15:53:04.388Z,20.94
2023-10-02T15:55:30.896Z,20.78
2023-10-02T15:57:57.726Z,20.60
2023-10-02T16:00:27.410Z,20.52
2023-10-02T16:02:55.169Z,20.44
2023-10-02T16:05:23.348Z,20.33
2023-10-02T16:07:53.363Z,20.31
2023-10-02T16:10:24.805Z,20.29
2023-10-02T16:12:53.534Z,20.20
2023-10-02T16:15:24.988Z,20.03
2023-10-02T16:17:55.001Z,19.99
2023-10-02T16:20:23.791Z,19.83
2023-10-02T16:22:52.220Z,19.71
2023-10-02T16:25:20.683Z,19.68
2023-10-02T16:27:52.237Z,19.72
2023-10-02T16:30:21.020Z,19.77
2023-10-02T16:32:49.792Z,19.70
2023-10-02T16:35:17.836Z,19.67
2023-10-02T16:37:44.739Z,19.67
2023-10-02T16:40:13.424Z,19.61
2023-10-02T16:42:40.767Z,19.46
2023-10-02T16:45:12.357Z,19.36
2023-10-02T16:47:42.115Z,19.25
2023-10-02T16:50:13.326Z,19.22
2023-10-02T16:52:48.904Z,19.35
2023-10-02T16:55:22.881Z,19.16
2023-10-02T16:57:51.814Z,18.88
2023-10-02T17:00:24.416Z,18.69
2023-10-02T17:02:52.882Z,18.64
2023-10-02T17:05:20.316Z,18.61
2023-10-02T17:07:50.899Z,18.49
2023-10-02T17:10:22.231Z,18.40
2023-10-02T17:12:50.684Z,18.24
2023-10-02T17:15:19.763Z,18.16
2023-10-02T17:17:50.061Z,18.06
2023-10-02T17:20:18.530Z,18.01
2023-10-02T17:22:46.529Z,17.79
2023-10-02T17:25:15.211Z,17.62
2023-10-02T17:27:42.760Z,17.52
2023-10-02T17:30:13.528Z,17.48
2023-10-02T17:32:41.336Z,17.46
2023-10-02T17:35:11.387Z,17.36
2023-10-02T17:37:41.163Z,17.38
2023-10-02T17:40:11.865Z,17.23
2023-10-02T17:42:39.455Z,17.13
2023-10-02T17:45:10.113Z,17.19
2023-10-02T17:47:38.018Z,17.10
2023-10-02T17:50:06.299Z,17.01
2023-10-02T17:52:33.075Z,16.93
2023-10-02T17:55:00.700Z,16.83
2023-10-02T17:57:27.418Z,16.76
2023-10-02T17:59:55.395Z,16.71
2023-10-02T18:02:22.262Z,16.64
2023-10-02T18:04:54.459Z,16.58
2023-10-02T18:07:21.790Z,16.60
2023-10-02T18:09:51.486Z,16.55
2023-10-02T18:12:18.609Z,16.43
2023-10-02T18:14:45.236Z,16.50
2023-10-02T18:17:13.282Z,16.31
2023-10-02T18:19:40.034Z,16.42
2023-10-02T18:22:07.239Z,16.35
2023-10-02T18:24:33.774Z,16.41
2023-10-02T18:27:01.361Z,16.29
2023-10-02T18:29:29.901Z,16.28
2023-10-02T18:31:56.847Z,16.34
2023-10-02T18:34:40.786Z,16.31
2023-10-02T18:37:09.973Z,16.14
2023-10-02T18:39:36.453Z,16.06
2023-10-02T18:42:04.945Z,15.96
2023-10-02T18:44:38.192Z,16.00
2023-10-02T18:47:05.298Z,15.88
2023-10-02T18:49:36.342Z,15.87
2023-10-02T18:52:04.108Z,15.82
2023-10-02T18:54:30.601Z,15.74
2023-10-02T18:56:59.463Z,15.66
2023-10-02T18:59:26.145Z,15.64
2023-10-02T19:01:52.892Z,15.58
2023-10-02T19:04:19.535Z,15.50
2023-10-02T19:06:46.761Z,15.54
2023-10-02T19:09:18.477Z,15.53
2023-10-02T19:11:48.075Z,15.51
2023-10-02T19:14:14.767Z,15.41
2023-10-02T19:16:42.304Z,15.38
2023-10-02T19:19:08.959Z,15.35
2023-10-02T19:21:36.323Z,15.30
2023-10-02T19:24:03.772Z,15.29
2023-10-02T19:26:37.143Z,15.17
2023-10-02T19:29:04.106Z,15.14
2023-10-02T19:31:31.455Z,15.18
2023-10-02T19:33:58.654Z,15.17
2023-10-02T19:36:25.476Z,15.17
2023-10-02T19:38:52.254Z,15.13
2023-10-02T19:41:20.133Z,15.16
2023-10-02T19:43:50.675Z,15.00
2023-10-02T19:46:17.552Z,14.94
2023-10-02T19:48:44.388Z,14.93
2023-10-02T19:51:15.859Z,14.89
2023-10-02T19:53:44.381Z,14.86
2023-10-02T19:56:13.434Z,14.82
2023-10-02T19:58:40.191Z,14.78
2023-10-02T20:01:06.741Z,14.69
2023-10-02T20:03:34.294Z,14.66
2023-10-02T20:06:07.534Z,14.64
2023-10-02T20:08:35.245Z,14.53
2023-10-02T20:11:03.506Z,14.57
2023-10-02T20:13:30.034Z,14.59
2023-10-02T20:15:57.363Z,14.54
2023-10-02T20:18:23.937Z,14.52
2023-10-02T20:20:50.595Z,14.55
2023-10-02T20:23:17.543Z,14.51
2023-10-02T20:25:44.874Z,14.42
2023-10-02T20:28:12.455Z,14.32
2023-10-02T20:30:40.153Z,14.30
2023-10-02T20:33:11.103Z,14.23
2023-10-02T20:35:39.756Z,14.26
2023-10-02T20:38:06.431Z,14.23
2023-10-02T20:40:36.542Z,14.25
2023-10-02T20:43:04.717Z,14.15
2023-10-02T20:45:37.573Z,14.19
2023-10-02T20:48:06.794Z,14.08
2023-10-02T20:50:34.534Z,14.08
2023-10-02T20:53:01.455Z,14.05
2023-10-02T20:55:27.989Z,14.07
2023-10-02T20:57:56.282Z,13.96
2023-10-02T21:00:23.402Z,13.93
2023-10-02T21:02:50.931Z,13.86
2023-10-02T21:05:17.762Z,13.93
2023-10-02T21:07:44.570Z,13.92
2023-10-02T21:10:11.116Z,13.90
2023-10-02T21:12:40.838Z,13.86
2023-10-02T21:15:13.140Z,13.88
2023-10-02T21:17:41.368Z,13.91
2023-10-02T21:20:20.148Z,13.93
2023-10-02T21:22:46.984Z,13.90
2023-10-02T21:25:17.068Z,13.75
2023-10-02T21:27:44.068Z,13.80
2023-10-02T21:30:14.087Z,13.78
2023-10-02T21:32:42.731Z,13.86
2023-10-02T21:35:10.594Z,13.82
2023-10-02T21:37:37.433Z,13.77
2023-10-02T21:40:07.687Z,13.66
2023-10-02T21:42:35.558Z,13.61
2023-10-02T21:45:03.128Z,13.63
2023-10-02T21:47:30.699Z,13.61
2023-10-02T21:49:58.164Z,13.48
2023-10-02T21:52:24.921Z,13.52
2023-10-02T21:54:55.110Z,13.49
2023-10-02T21:57:23.402Z,13.41
2023-10-02T21:59:50.790Z,13.51
2023-10-02T22:02:19.130Z,13.42
2023-10-02T22:04:47.077Z,13.43
2023-10-02T22:07:13.897Z,13.36
2023-10-02T22:09:41.131Z,13.30
2023-10-02T22:12:08.173Z,13.27
2023-10-02T22:14:35.295Z,13.28
2023-10-02T22:17:08.048Z,13.31
2023-10-02T22:19:34.621Z,13.30
2023-10-02T22:22:01.128Z,13.23
2023-10-02T22:24:28.655Z,13.21
2023-10-02T22:26:55.197Z,13.19
2023-10-02T22:29:21.808Z,13.14
2023-10-02T22:31:48.536Z,13.13
2023-10-02T22:34:30.318Z,13.08
2023-10-02T22:37:02.331Z,13.08
2023-10-02T22:39:29.797Z,13.06
2023-10-02T22:41:56.398Z,13.02
2023-10-02T22:44:24.121Z,13.18
2023-10-02T22:46:50.687Z,13.01
2023-10-02T22:49:17.735Z,12.94
2023-10-02T22:51:45.245Z,12.95
2023-10-02T22:54:11.916Z,12.95
2023-10-02T22:56:39.083Z,12.95
2023-10-02T22:59:05.766Z,12.95
2023-10-02T23:01:32.562Z,12.82
2023-10-02T23:04:02.085Z,12.79
2023-10-02T23:06:30.750Z,12.80
2023-10-02T23:08:58.513Z,12.77
2023-10-02T23:11:26.278Z,12.82
2023-10-02T23:13:55.986Z,12.78
2023-10-02T23:16:23.675Z,12.80
2023-10-02T23:18:50.790Z,12.77
2023-10-02T23:21:18.309Z,12.79
2023-10-02T23:23:46.369Z,12.76
2023-10-02T23:26:17.259Z,12.70
2023-10-02T23:28:43.810Z,12.81
2023-10-02T23:31:11.019Z,12.74
2023-10-02T23:33:38.148Z,12.73
2023-10-02T23:36:09.496Z,12.70
2023-10-02T23:38:36.167Z,12.66
2023-10-02T23:41:02.688Z,12.58
2023-10-02T23:43:29.510Z,12.62
2023-10-02T23:45:56.185Z,12.55
2023-10-02T23:48:24.203Z,12.53
2023-10-02T23:50:56.042Z,12.59
2023-10-02T23:53:26.371Z,12.58
2023-10-02T23:56:00.139Z,12.57
2023-10-02T23:58:27.398Z,12.53
